Time;durP1;ratioP1;P1;durP2;ratioP2;P2;SDS_P1;SDS_P2;PMS_P1;PMS_P2;Temp;Humidity;BMP_temperature;BMP_pressure;BME280_temperature;BME280_humidity;BME280_pressure;Samples;Min_cycle;Max_cycle;Signal;HPM_P1;HPM_P2
2024/04/13 00:15:57;;;;;;;;;;;;;;;16.19;100.00;102664.72;5319073;26;1984;-94
2024/04/13 00:18:22;;;;;;;;;;;;;;;16.12;100.00;102675.56;5281572;26;1671;-95
2024/04/13 00:20:47;;;;;;;;;;;;;;;16.10;100.00;102669.50;5273944;26;2061;-95
2024/04/13 00:23:13;;;;;;;;;;;;;;;16.09;100.00;102665.16;5253658;26;1319;-96
2024/04/13 00:25:38;;;;;;;;;;;;;;;16.11;100.00;102662.25;5273493;26;1837;-96
2024/04/13 00:28:05;;;;;;;;;;;;;;;16.07;100.00;102674.53;5243756;26;1197;-95
2024/04/13 00:30:31;;;;;;;;;;;;;;;16.07;100.00;102661.81;5284614;26;1465;-95
2024/04/13 00:32:56;;;;;;;;;;;;;;;16.05;100.00;102663.06;5295747;26;1225;-94
2024/04/13 00:35:22;;;;;;;;;;;;;;;16.05;100.00;102657.66;5281882;26;1328;-95
2024/04/13 00:37:50;;;;;;;;;;;;;;;16.04;100.00;102653.31;5258778;26;1403;-95
2024/04/13 00:40:15;;;;;;;;;;;;;;;16.03;100.00;102654.34;5257287;27;1333;-96
2024/04/13 00:42:43;;;;;;;;;;;;;;;15.98;100.00;102658.50;5306698;26;1388;-95
2024/04/13 00:45:09;;;;;;;;;;;;;;;15.99;100.00;102653.94;5287285;26;1860;-95
2024/04/13 00:47:34;;;;;;;;;;;;;;;15.96;100.00;102652.47;5285361;26;1376;-96
2024/04/13 00:50:03;;;;;;;;;;;;;;;15.95;100.00;102653.50;5286559;26;1360;-94
2024/04/13 00:52:29;;;;;;;;;;;;;;;15.96;100.00;102655.19;5245476;26;1366;-96
2024/04/13 00:54:55;;;;;;;;;;;;;;;15.95;100.00;102655.38;5293721;26;1361;-96
2024/04/13 00:57:21;;;;;;;;;;;;;;;15.94;100.00;102653.72;5264506;27;1170;-96
2024/04/13 00:59:49;;;;;;;;;;;;;;;15.92;100.00;102656.63;5314794;26;1280;-95
2024/04/13 01:02:16;;;;;;;;;;;;;;;15.91;100.00;102654.94;5288456;27;1349;-95
2024/04/13 01:04:44;;;;;;;;;;;;;;;15.91;100.00;102649.53;5279378;26;1841;-95
2024/04/13 01:07:10;;;;;;;;;;;;;;;15.89;100.00;102646.22;5284271;26;1353;-96
2024/04/13 01:09:36;;;;;;;;;;;;;;;15.92;100.00;102643.09;5251666;26;1465;-95
2024/04/13 01:12:21;;;;;;;;;;;;;;;15.89;100.00;102648.09;5257987;26;1411;-95
2024/04/13 01:14:47;;;;;;;;;;;;;;;15.87;100.00;102647.47;5263422;26;1568;-94
2024/04/13 01:17:12;;;;;;;;;;;;;;;15.90;100.00;102647.91;5289000;26;1473;-96
2024/04/13 01:19:37;;;;;;;;;;;;;;;15.87;100.00;102645.63;5261552;26;1470;-95
2024/04/13 01:22:03;;;;;;;;;;;;;;;15.86;100.00;102643.94;5258971;26;1279;-95
2024/04/13 01:24:32;;;;;;;;;;;;;;;15.83;100.00;102637.06;5257101;26;1866;-95
2024/04/13 01:26:57;;;;;;;;;;;;;;;15.87;100.00;102633.94;5276479;26;1368;-96
2024/04/13 01:29:23;;;;;;;;;;;;;;;15.82;100.00;102632.72;5273612;26;1316;-96
2024/04/13 01:31:48;;;;;;;;;;;;;;;15.82;100.00;102630.00;5288581;26;1365;-96
2024/04/13 01:34:13;;;;;;;;;;;;;;;15.80;100.00;102618.56;5258794;26;1392;-96
2024/04/13 01:36:42;;;;;;;;;;;;;;;15.79;100.00;102613.34;5281996;26;1509;-96
2024/04/13 01:39:11;;;;;;;;;;;;;;;15.78;100.00;102614.38;5285598;27;1349;-95
2024/04/13 01:41:41;;;;;;;;;;;;;;;15.77;100.00;102618.94;5314667;26;1390;-95
2024/04/13 01:44:06;;;;;;;;;;;;;;;15.75;100.00;102610.22;5291077;26;1527;-95
2024/04/13 01:46:35;;;;;;;;;;;;;;;15.78;100.00;102606.25;5264971;26;1849;-96
2024/04/13 01:49:01;;;;;;;;;;;;;;;15.76;100.00;102613.75;5266409;26;1375;-95
2024/04/13 01:51:28;;;;;;;;;;;;;;;15.75;100.00;102615.63;5268595;26;1474;-94
2024/04/13 01:53:53;;;;;;;;;;;;;;;15.73;100.00;102598.75;5261962;26;1386;-96
2024/04/13 01:56:19;;;;;;;;;;;;;;;15.74;100.00;102602.31;5260130;26;1439;-96
2024/04/13 01:58:44;;;;;;;;;;;;;;;15.72;100.00;102591.69;5257889;26;1330;-94
2024/04/13 02:01:10;;;;;;;;;;;;;;;15.70;100.00;102588.34;5263295;26;1378;-96
2024/04/13 02:03:35;;;;;;;;;;;;;;;15.69;100.00;102583.16;5259219;26;1313;-95
2024/04/13 02:06:01;;;;;;;;;;;;;;;15.68;100.00;102601.25;5259702;26;1827;-95
2024/04/13 02:08:27;;;;;;;;;;;;;;;15.69;100.00;102591.25;5265177;26;1354;-95
2024/04/13 02:10:53;;;;;;;;;;;;;;;15.68;100.00;102597.69;5306128;26;1747;-96
2024/04/13 02:13:19;;;;;;;;;;;;;;;15.69;100.00;102593.97;5238623;26;1396;-96
2024/04/13 02:15:47;;;;;;;;;;;;;;;15.66;100.00;102597.91;5268164;26;1389;-95
2024/04/13 02:18:13;;;;;;;;;;;;;;;15.65;100.00;102588.16;5257775;26;1649;-96
2024/04/13 02:20:40;;;;;;;;;;;;;;;15.65;100.00;102580.03;5243581;26;1585;-96
2024/04/13 02:23:06;;;;;;;;;;;;;;;15.64;100.00;102587.31;5258326;26;1489;-95
2024/04/13 02:25:35;;;;;;;;;;;;;;;15.61;100.00;102586.91;5281553;26;1845;-96
2024/04/13 02:28:02;;;;;;;;;;;;;;;15.60;100.00;102572.56;5246026;26;1427;-96
2024/04/13 02:30:27;;;;;;;;;;;;;;;15.62;100.00;102573.19;5232882;26;1830;-96
2024/04/13 02:33:25;;;;;;;;;;;;;;;15.63;100.00;102587.50;5235472;26;1467;-96
2024/04/13 02:35:57;;;;;;;;;;;;;;;15.56;100.00;102587.53;5322255;26;2013;-96
2024/04/13 02:38:29;;;;;;;;;;;;;;;15.56;100.00;102579.41;5261092;26;1540;-95
2024/04/13 02:40:55;;;;;;;;;;;;;;;15.57;100.00;102581.09;5282907;26;1466;-95
2024/04/13 02:43:21;;;;;;;;;;;;;;;15.58;100.00;102590.84;5255650;26;1414;-95
2024/04/13 02:45:46;;;;;;;;;;;;;;;15.56;100.00;102587.53;5251415;26;1833;-96
2024/04/13 02:48:11;;;;;;;;;;;;;;;15.58;100.00;102584.63;5281614;26;1453;-96
2024/04/13 02:50:37;;;;;;;;;;;;;;;15.55;100.00;102576.94;5281887;26;1462;-95
2024/04/13 02:53:02;;;;;;;;;;;;;;;15.55;100.00;102577.75;5260995;26;1438;-96
2024/04/13 02:55:28;;;;;;;;;;;;;;;15.51;100.00;102576.50;5262970;26;1496;-96
2024/04/13 02:57:53;;;;;;;;;;;;;;;15.55;100.00;102577.75;5235409;26;1508;-96
2024/04/13 03:00:19;;;;;;;;;;;;;;;15.50;100.00;102577.56;5271023;26;1434;-96
2024/04/13 03:02:44;;;;;;;;;;;;;;;15.47;100.00;102584.19;5311975;26;1390;-95
2024/04/13 03:05:09;;;;;;;;;;;;;;;15.50;100.00;102584.81;5236340;26;1830;-96
2024/04/13 03:07:35;;;;;;;;;;;;;;;15.50;100.00;102587.50;5285203;26;1458;-94
2024/04/13 03:10:00;;;;;;;;;;;;;;;15.48;100.00;102585.88;5264981;26;1391;-94
2024/04/13 03:12:25;;;;;;;;;;;;;;;15.47;100.00;102584.19;5285604;26;1248;-96
2024/04/13 03:14:54;;;;;;;;;;;;;;;15.44;100.00;102581.91;5269435;27;1297;-96
2024/04/13 03:17:19;;;;;;;;;;;;;;;15.44;100.00;102581.91;5264332;27;1307;-95
2024/04/13 03:19:47;;;;;;;;;;;;;;;15.40;100.00;102587.94;5273196;27;1200;-95
2024/04/13 03:22:13;;;;;;;;;;;;;;;15.40;100.00;102585.25;5274667;27;1284;-95
2024/04/13 03:24:39;;;;;;;;;;;;;;;15.37;100.00;102575.66;5211386;27;1853;-96
2024/04/13 03:27:05;;;;;;;;;;;;;;;15.38;100.00;102580.03;5226175;27;1226;-96
2024/04/13 03:29:30;;;;;;;;;;;;;;;15.36;100.00;102578.56;5232566;27;1384;-96
2024/04/13 03:31:56;;;;;;;;;;;;;;;15.35;100.00;102577.75;5219600;27;1337;-96
2024/04/13 03:34:21;;;;;;;;;;;;;;;15.32;100.00;102571.91;5275521;27;1417;-96
2024/04/13 03:36:46;;;;;;;;;;;;;;;15.28;100.00;102575.03;5217676;27;1321;-96
2024/04/13 03:39:13;;;;;;;;;;;;;;;15.32;100.00;102577.31;5274053;27;1364;-96
2024/04/13 03:41:38;;;;;;;;;;;;;;;15.26;100.00;102582.53;5221329;27;1301;-96
2024/04/13 03:44:03;;;;;;;;;;;;;;;15.28;100.00;102580.44;5276388;27;1299;-96
2024/04/13 03:46:31;;;;;;;;;;;;;;;15.24;100.00;102579.16;5216856;27;1850;-96
2024/04/13 03:48:58;;;;;;;;;;;;;;;15.27;100.00;102588.75;5188745;27;1549;-95
2024/04/13 03:51:24;;;;;;;;;;;;;;;15.27;100.00;102588.75;5297594;26;1370;-96
2024/04/13 03:53:49;;;;;;;;;;;;;;;15.23;100.00;102591.03;5242318;27;1509;-96
2024/04/13 03:56:16;;;;;;;;;;;;;;;15.20;100.00;102585.19;5269133;27;1326;-95
2024/04/13 03:58:41;;;;;;;;;;;;;;;15.19;100.00;102592.47;5263383;27;1568;-95
2024/04/13 04:01:07;;;;;;;;;;;;;;;15.18;100.00;102585.41;5219746;27;1417;-94
2024/04/13 04:03:32;;;;;;;;;;;;;;;15.19;100.00;102591.66;5273856;27;1541;-95
2024/04/13 04:05:57;;;;;;;;;;;;;;;15.17;100.00;102591.00;5260774;27;1843;-94
2024/04/13 04:08:23;;;;;;;;;;;;;;;15.15;100.00;102591.22;5245223;27;1395;-95
2024/04/13 04:10:48;;;;;;;;;;;;;;;15.14;100.00;102597.66;5247449;27;1298;-96
2024/04/13 04:13:14;;;;;;;;;;;;;;;15.11;100.00;102595.38;5269975;27;1458;-94
2024/04/13 04:15:40;;;;;;;;;;;;;;;15.09;100.00;102590.16;5292341;26;1309;-95
2024/04/13 04:18:06;;;;;;;;;;;;;;;15.12;100.00;102594.34;5260114;27;1441;-96
2024/04/13 04:20:31;;;;;;;;;;;;;;;15.09;100.00;102590.16;5246492;27;1361;-95
2024/04/13 04:22:57;;;;;;;;;;;;;;;15.05;100.00;102586.22;5218065;27;1359;-95
2024/04/13 04:25:22;;;;;;;;;;;;;;;15.05;100.00;102588.06;5244359;27;1827;-95
2024/04/13 04:27:48;;;;;;;;;;;;;;;15.04;100.00;102587.25;5265054;27;1239;-94
2024/04/13 04:30:16;;;;;;;;;;;;;;;15.02;100.00;102585.78;5297294;26;1363;-94
2024/04/13 04:32:52;;;;;;;;;;;;;;;15.05;100.00;102593.47;5250187;27;1263;-95
2024/04/13 04:35:18;;;;;;;;;;;;;;;15.01;100.00;102579.56;5216999;27;1349;-94
2024/04/13 04:38:19;;;;;;;;;;;;;;;14.97;100.00;102581.00;5258773;27;1408;-96
2024/04/13 04:40:44;;;;;;;;;;;;;;;14.97;100.00;102585.59;5291482;27;1321;-95
2024/04/13 04:43:09;;;;;;;;;;;;;;;14.97;100.00;102575.59;5270623;27;1572;-95
2024/04/13 04:45:36;;;;;;;;;;;;;;;14.94;100.00;102576.00;5249875;27;1823;-95
2024/04/13 04:48:02;;;;;;;;;;;;;;;14.94;100.00;102579.53;5249095;27;1380;-95
2024/04/13 04:50:27;;;;;;;;;;;;;;;14.90;100.00;102588.25;5240338;27;1357;-94
2024/04/13 04:52:53;;;;;;;;;;;;;;;14.90;100.00;102580.97;5247017;27;1188;-95
2024/04/13 04:55:18;;;;;;;;;;;;;;;14.90;100.00;102585.53;5278258;27;1378;-95
2024/04/13 04:57:44;;;;;;;;;;;;;;;14.86;100.00;102568.94;5274149;27;1384;-96
2024/04/13 05:00:13;;;;;;;;;;;;;;;14.86;100.00;102581.56;5249501;27;1287;-96
2024/04/13 05:02:39;;;;;;;;;;;;;;;14.89;100.00;102576.63;5223327;27;1437;-96
2024/04/13 05:05:05;;;;;;;;;;;;;;;14.85;100.00;102579.94;5242469;27;1894;-94
2024/04/13 05:07:30;;;;;;;;;;;;;;;14.85;100.00;102580.75;5272387;27;1306;-96
2024/04/13 05:09:55;;;;;;;;;;;;;;;14.84;100.00;102581.78;5267221;27;1258;-95
2024/04/13 05:12:21;;;;;;;;;;;;;;;14.83;100.00;102585.53;5253024;27;1258;-96
2024/04/13 05:14:47;;;;;;;;;;;;;;;14.83;100.00;102580.13;5277444;27;1301;-94
2024/04/13 05:17:15;;;;;;;;;;;;;;;14.81;100.00;102574.09;5247464;27;1369;-96
2024/04/13 05:19:40;;;;;;;;;;;;;;;14.80;100.00;102569.75;5221563;27;1349;-96
2024/04/13 05:22:06;;;;;;;;;;;;;;;14.80;100.00;102582.41;5263271;27;1264;-96
2024/04/13 05:24:32;;;;;;;;;;;;;;;14.83;100.00;102576.59;5248266;27;1539;-95
2024/04/13 05:27:07;;;;;;;;;;;;;;;14.78;100.00;102566.41;5220229;27;1830;-95
2024/04/13 05:29:35;;;;;;;;;;;;;;;14.74;100.00;102571.38;5234795;27;1288;-96
2024/04/13 05:32:00;;;;;;;;;;;;;;;14.78;100.00;102571.78;5269495;27;1398;-96
2024/04/13 05:34:26;;;;;;;;;;;;;;;14.81;100.00;102568.69;5277234;27;1279;-95
2024/04/13 05:36:51;;;;;;;;;;;;;;;14.77;100.00;102570.97;5215779;27;1421;-95
2024/04/13 05:39:17;;;;;;;;;;;;;;;14.80;100.00;102580.53;5262216;27;1252;-95
2024/04/13 05:41:42;;;;;;;;;;;;;;;14.76;100.00;102574.69;5246975;27;1453;-96
2024/04/13 05:44:08;;;;;;;;;;;;;;;14.81;100.00;102570.56;5221424;27;1416;-95
2024/04/13 05:46:33;;;;;;;;;;;;;;;14.77;100.00;102570.97;5248622;27;1841;-96
2024/04/13 05:48:59;;;;;;;;;;;;;;;14.79;100.00;102575.34;5216296;27;1298;-96
2024/04/13 05:51:24;;;;;;;;;;;;;;;14.81;100.00;102565.16;5270803;27;1453;-96
2024/04/13 05:53:50;;;;;;;;;;;;;;;14.82;100.00;102570.38;5220285;27;1231;-96
2024/04/13 05:56:15;;;;;;;;;;;;;;;14.85;100.00;102567.25;5266305;27;1435;-96
2024/04/13 05:58:41;;;;;;;;;;;;;;;14.87;100.00;102565.16;5249348;27;1375;-95
2024/04/13 06:01:06;;;;;;;;;;;;;;;14.86;100.00;102562.69;5271458;27;1351;-96
2024/04/13 06:03:33;;;;;;;;;;;;;;;14.87;100.00;102565.16;5247562;27;1349;-95
2024/04/13 06:05:58;;;;;;;;;;;;;;;14.92;100.00;102570.00;5239652;27;1851;-96
2024/04/13 06:08:27;;;;;;;;;;;;;;;14.90;100.00;102559.34;5275762;27;1336;-96
2024/04/13 06:10:57;;;;;;;;;;;;;;;14.92;100.00;102560.00;5276847;27;1423;-96
2024/04/13 06:13:48;;;;;;;;;;;;;;;14.91;100.00;102558.34;5240903;27;1469;-95
2024/04/13 06:16:13;;;;;;;;;;;;;;;14.92;100.00;102565.41;5278711;26;1303;-96
2024/04/13 06:18:42;;;;;;;;;;;;;;;14.96;100.00;102568.53;5223116;27;1373;-95
2024/04/13 06:21:08;;;;;;;;;;;;;;;14.98;100.00;102560.22;5269129;27;1520;-96
2024/04/13 06:23:33;;;;;;;;;;;;;;;14.96;100.00;102552.31;5202818;27;1388;-95
2024/04/13 06:25:59;;;;;;;;;;;;;;;14.98;100.00;102552.09;5217850;27;1822;-95
2024/04/13 06:28:26;;;;;;;;;;;;;;;14.95;100.00;102556.06;5247919;27;1310;-95
2024/04/13 06:30:55;;;;;;;;;;;;;;;14.97;100.00;102553.16;5242215;27;1252;-96
2024/04/13 06:33:20;;;;;;;;;;;;;;;15.00;100.00;102555.44;5245390;27;1259;-96
2024/04/13 06:36:04;;;;;;;;;;;;;;;15.02;100.00;102558.78;5272109;27;1371;-95
2024/04/13 06:38:30;;;;;;;;;;;;;;;15.00;100.00;102555.44;5225145;27;1360;-96
2024/04/13 06:40:55;;;;;;;;;;;;;;;14.95;100.00;102559.59;5239186;27;2128;-95
2024/04/13 06:43:22;;;;;;;;;;;;;;;15.09;100.00;102549.63;5275447;27;1593;-96
2024/04/13 06:45:49;;;;;;;;;;;;;;;15.19;100.00;102553.81;5212535;27;1850;-95
2024/04/13 06:48:14;;;;;;;;;;;;;;;15.17;100.00;102558.59;5293311;27;1376;-94
2024/04/13 06:50:41;;;;;;;;;;;;;;;15.20;100.00;102559.03;5213009;27;1400;-96
2024/04/13 06:53:06;;;;;;;;;;;;;;;15.19;100.00;102554.66;5246139;27;1386;-96
2024/04/13 06:55:32;;;;;;;;;;;;;;;15.21;100.00;102555.25;5246620;27;1407;-96
2024/04/13 06:57:57;;;;;;;;;;;;;;;15.20;100.00;102552.78;5246763;27;1289;-95
2024/04/13 07:00:23;;;;;;;;;;;;;;;15.20;100.00;102559.03;5225975;27;1396;-95
2024/04/13 07:03:31;;;;;;;;;;;;;;;15.22;100.00;102548.00;5250009;27;1252;-96
2024/04/13 07:05:57;;;;;;;;;;;;;;;15.18;100.00;102547.56;5273643;27;1826;-96
2024/04/13 07:08:28;;;;;;;;;;;;;;;15.20;100.00;102542.81;5282464;27;1314;-96
2024/04/13 07:10:53;;;;;;;;;;;;;;;15.22;100.00;102540.72;5281637;27;1269;-96
2024/04/13 07:13:19;;;;;;;;;;;;;;;15.23;100.00;102538.84;5249333;27;1305;-94
2024/04/13 07:15:53;;;;;;;;;;;;;;;15.24;100.00;102533.22;5281464;26;1391;-95
2024/04/13 07:18:19;;;;;;;;;;;;;;;15.26;100.00;102524.91;5244968;27;1264;-95
2024/04/13 07:20:46;;;;;;;;;;;;;;;15.23;100.00;102525.34;5253827;27;1425;-94
2024/04/13 07:23:12;;;;;;;;;;;;;;;15.27;100.00;102527.41;5277721;27;1344;-94
2024/04/13 07:25:37;;;;;;;;;;;;;;;15.32;100.00;102520.56;5251472;27;1857;-95
2024/04/13 07:28:09;;;;;;;;;;;;;;;15.33;100.00;102519.53;5246214;27;1289;-96
2024/04/13 07:30:35;;;;;;;;;;;;;;;15.35;100.00;102528.25;5274796;27;1308;-96
2024/04/13 07:33:03;;;;;;;;;;;;;;;15.33;100.00;102519.53;5239958;27;1333;-95
2024/04/13 07:35:28;;;;;;;;;;;;;;;15.37;100.00;102523.47;5248983;27;1477;-93
2024/04/13 07:37:54;;;;;;;;;;;;;;;15.42;100.00;102521.78;5271391;27;1281;-93
2024/04/13 07:40:19;;;;;;;;;;;;;;;15.47;100.00;102510.38;5296589;27;1305;-95
2024/04/13 07:42:45;;;;;;;;;;;;;;;15.49;100.00;102511.00;5246320;27;1331;-96
2024/04/13 07:45:18;;;;;;;;;;;;;;;15.54;100.00;102513.06;5246829;27;1834;-94
2024/04/13 07:47:44;;;;;;;;;;;;;;;15.57;100.00;102510.78;5269491;27;1370;-94
2024/04/13 07:50:13;;;;;;;;;;;;;;;15.64;100.00;102500.78;5264813;27;1343;-94
2024/04/13 07:52:39;;;;;;;;;;;;;;;15.60;100.00;102501.41;5248602;27;1360;-94
2024/04/13 07:55:04;;;;;;;;;;;;;;;15.65;100.00;102505.16;5247038;27;1282;-93
2024/04/13 07:57:30;;;;;;;;;;;;;;;15.71;100.00;102508.88;5273414;27;1774;-96
2024/04/13 07:59:55;;;;;;;;;;;;;;;15.72;100.00;102504.31;5250554;27;1341;-95
2024/04/13 08:02:20;;;;;;;;;;;;;;;15.76;100.00;102506.38;5248318;27;1363;-95
2024/04/13 08:04:46;;;;;;;;;;;;;;;15.85;100.00;102498.91;5288961;21;2057;-61
2024/04/13 08:07:11;;;;;;;;;;;;;;;15.89;100.00;102494.72;5330199;26;1126;-61
2024/04/13 08:09:40;;;;;;;;;;;;;;;15.94;100.00;102492.25;5333523;26;1293;-61
2024/04/13 08:12:07;;;;;;;;;;;;;;;15.95;100.00;102493.06;5332218;26;1257;-62
2024/04/13 08:14:33;;;;;;;;;;;;;;;16.03;100.00;102492.00;5322452;26;1367;-61
2024/04/13 08:16:58;;;;;;;;;;;;;;;16.04;100.00;102489.06;5336973;26;1247;-61
2024/04/13 08:19:23;;;;;;;;;;;;;;;16.09;100.00;102485.72;5336584;26;1194;-62
2024/04/13 08:21:51;;;;;;;;;;;;;;;16.08;100.00;102489.50;5339365;26;1373;-61
2024/04/13 08:24:16;;;;;;;;;;;;;;;16.11;100.00;102489.88;5329749;26;1279;-61
2024/04/13 08:26:42;;;;;;;;;;;;;;;16.15;100.00;102488.41;5336001;26;1866;-62
2024/04/13 08:29:07;;;;;;;;;;;;;;;16.17;100.00;102483.59;5316639;26;1205;-63
2024/04/13 08:31:32;;;;;;;;;;;;;;;15.69;100.00;102480.38;5327578;26;1349;-62
2024/04/13 08:33:57;;;;;;;;;;;;;;;15.48;100.00;102491.25;5363684;26;1446;-62
2024/04/13 08:36:23;;;;;;;;;;;;;;;15.90;100.00;102492.84;5308642;26;1292;-62
2024/04/13 08:38:48;;;;;;;;;;;;;;;16.09;100.00;102497.41;5356597;26;1430;-62
2024/04/13 08:41:17;;;;;;;;;;;;;;;16.15;100.00;102495.69;5328792;26;1317;-61
2024/04/13 08:43:42;;;;;;;;;;;;;;;16.18;100.00;102484.44;5322835;26;1198;-62
2024/04/13 08:46:08;;;;;;;;;;;;;;;16.16;100.00;102487.34;5338018;26;1826;-62
2024/04/13 08:48:34;;;;;;;;;;;;;;;16.27;100.00;102477.75;5334774;26;1339;-62
2024/04/13 08:51:00;;;;;;;;;;;;;;;16.25;100.00;102465.47;5335101;26;1553;-62
2024/04/13 08:53:25;;;;;;;;;;;;;;;16.28;100.00;102468.56;5336008;26;1247;-62
2024/04/13 08:55:53;;;;;;;;;;;;;;;16.35;100.00;102471.25;5324734;26;1361;-62
2024/04/13 08:58:18;;;;;;;;;;;;;;;16.31;100.00;102472.72;5336218;26;1172;-62
2024/04/13 09:00:43;;;;;;;;;;;;;;;16.31;100.00;102462.72;5330955;26;1394;-62
2024/04/13 09:03:10;;;;;;;;;;;;;;;16.27;100.00;102457.94;5306662;26;1208;-62
2024/04/13 09:05:36;;;;;;;;;;;;;;;16.30;100.00;102452.09;5355965;26;1872;-62
2024/04/13 09:08:03;;;;;;;;;;;;;;;16.32;100.00;102448.16;5365792;26;1300;-62
2024/04/13 09:10:29;;;;;;;;;;;;;;;16.39;100.00;102452.69;5327304;26;1598;-62
2024/04/13 09:12:54;;;;;;;;;;;;;;;16.28;100.00;102441.50;5369005;26;1191;-61
2024/04/13 09:15:20;;;;;;;;;;;;;;;16.34;100.00;102447.94;5364469;26;1238;-62
2024/04/13 09:17:45;;;;;;;;;;;;;;;16.34;100.00;102443.38;5315533;26;1397;-62
2024/04/13 09:20:10;;;;;;;;;;;;;;;16.35;100.00;102442.28;5364018;26;1407;-62
2024/04/13 09:22:36;;;;;;;;;;;;;;;16.35;100.00;102446.88;5344959;26;1311;-62
2024/04/13 09:25:01;;;;;;;;;;;;;;;16.41;100.00;102437.06;5369761;26;1837;-62
2024/04/13 09:27:30;;;;;;;;;;;;;;;16.45;100.00;102433.72;5358504;26;1557;-62
2024/04/13 09:30:10;;;;;;;;;;;;;;;16.46;100.00;102424.56;5369000;26;1455;-62
2024/04/13 09:32:36;;;;;;;;;;;;;;;16.46;100.00;102423.69;5357458;26;1315;-62
2024/04/13 09:35:10;;;;;;;;;;;;;;;16.62;100.00;102425.06;5371988;26;1164;-62
2024/04/13 09:37:36;;;;;;;;;;;;;;;16.67;100.00;102420.66;5341448;26;1318;-63
2024/04/13 09:40:04;;;;;;;;;;;;;;;16.69;100.00;102415.84;5339385;26;1201;-62
2024/04/13 09:42:30;;;;;;;;;;;;;;;16.72;100.00;102411.06;5365427;26;1367;-62
2024/04/13 09:45:05;;;;;;;;;;;;;;;16.74;100.00;102411.66;5370439;26;1829;-62
2024/04/13 09:47:31;;;;;;;;;;;;;;;16.79;100.00;102406.38;5376441;26;1251;-62
2024/04/13 09:49:56;;;;;;;;;;;;;;;16.93;100.00;102399.03;5363481;26;1370;-62
2024/04/13 09:52:23;;;;;;;;;;;;;;;16.94;100.00;102401.50;5315583;26;1299;-62
2024/04/13 09:54:48;;;;;;;;;;;;;;;16.99;100.00;102395.44;5341656;26;1349;-62
2024/04/13 09:57:14;;;;;;;;;;;;;;;16.94;100.00;102389.81;5362418;26;1294;-62
2024/04/13 09:59:39;;;;;;;;;;;;;;;16.99;100.00;102379.16;5335165;26;1280;-62
2024/04/13 10:02:05;;;;;;;;;;;;;;;16.98;100.00;102381.06;5369631;26;1201;-62
2024/04/13 10:04:30;;;;;;;;;;;;;;;17.06;100.00;102377.22;5320081;26;1283;-62
2024/04/13 10:06:55;;;;;;;;;;;;;;;17.07;100.00;102378.88;5349102;26;1835;-61
2024/04/13 10:09:21;;;;;;;;;;;;;;;17.17;100.00;102367.53;5371625;26;1361;-62
2024/04/13 10:11:48;;;;;;;;;;;;;;;17.13;100.00;102361.75;5375622;26;1387;-62
2024/04/13 10:14:13;;;;;;;;;;;;;;;17.13;100.00;102356.31;5315359;26;1442;-61
2024/04/13 10:16:39;;;;;;;;;;;;;;;17.23;100.00;102355.78;5339141;26;1225;-62
2024/04/13 10:19:04;;;;;;;;;;;;;;;17.20;100.00;102358.94;5345694;26;1319;-62
2024/04/13 10:21:33;;;;;;;;;;;;;;;17.24;100.00;102357.44;5372912;26;1541;-62
2024/04/13 10:23:58;;;;;;;;;;;;;;;17.27;100.00;102357.00;5334735;26;1446;-62
2024/04/13 10:26:30;;;;;;;;;;;;;;;17.33;100.00;102361.53;5337782;26;1844;-62
2024/04/13 10:28:56;;;;;;;;;;;;;;;17.31;100.00;102349.22;5362120;26;1726;-62
2024/04/13 10:31:21;;;;;;;;;;;;;;;17.31;100.00;102341.09;5364509;26;1099;-62
2024/04/13 10:33:53;;;;;;;;;;;;;;;17.34;100.00;102343.34;5366873;26;1494;-62
2024/04/13 10:36:25;;;;;;;;;;;;;;;17.28;100.00;102338.84;5351561;26;1129;-61
2024/04/13 10:38:53;;;;;;;;;;;;;;;17.32;100.00;102335.44;5367732;26;2205;-62
2024/04/13 10:41:28;;;;;;;;;;;;;;;17.34;100.00;102335.22;5363688;26;1345;-62
2024/04/13 10:43:57;;;;;;;;;;;;;;;17.34;100.00;102333.38;5374823;26;1500;-61
2024/04/13 10:46:22;;;;;;;;;;;;;;;17.38;100.00;102336.44;5338929;26;1861;-63
2024/04/13 10:48:48;;;;;;;;;;;;;;;17.42;100.00;102331.41;5313189;26;1394;-62
2024/04/13 10:51:13;;;;;;;;;;;;;;;17.41;100.00;102314.28;5373141;26;1261;-62
2024/04/13 10:53:40;;;;;;;;;;;;;;;17.45;100.00;102320.09;5343195;26;1298;-62
2024/04/13 10:56:06;;;;;;;;;;;;;;;17.44;100.00;102316.53;5373743;26;1162;-62
2024/04/13 10:58:31;;;;;;;;;;;;;;;17.49;100.00;102305.03;5328278;26;1301;-62
2024/04/13 11:00:57;;;;;;;;;;;;;;;17.43;100.00;102295.94;5363549;26;1524;-62
2024/04/13 11:03:24;;;;;;;;;;;;;;;17.44;100.00;102294.03;5375194;26;1351;-62
2024/04/13 11:05:49;;;;;;;;;;;;;;;17.45;100.00;102298.41;5312915;26;1856;-62
2024/04/13 11:08:14;;;;;;;;;;;;;;;17.49;100.00;102289.59;5343732;26;1169;-62
2024/04/13 11:10:41;;;;;;;;;;;;;;;17.43;100.00;102287.78;5364117;26;1626;-62
2024/04/13 11:13:07;;;;;;;;;;;;;;;17.48;100.00;102284.41;5366450;26;2059;-62
2024/04/13 11:15:32;;;;;;;;;;;;;;;17.47;100.00;102278.13;5334485;26;2217;-61
2024/04/13 11:17:58;;;;;;;;;;;;;;;17.49;100.00;102275.22;5337095;26;1562;-62
2024/04/13 11:20:23;;;;;;;;;;;;;;;17.49;100.00;102286.88;5313503;26;1472;-62
2024/04/13 11:22:48;;;;;;;;;;;;;;;17.51;100.00;102282.03;5331675;26;1358;-62
2024/04/13 11:25:15;;;;;;;;;;;;;;;17.52;100.00;102269.34;5324382;26;1822;-61
2024/04/13 11:27:40;;;;;;;;;;;;;;;17.53;100.00;102269.09;5359500;26;1308;-61
2024/04/13 11:30:06;;;;;;;;;;;;;;;17.54;100.00;102265.31;5333748;26;1435;-62
2024/04/13 11:32:31;;;;;;;;;;;;;;;17.54;100.00;102264.50;5364225;26;1354;-62
2024/04/13 11:34:56;;;;;;;;;;;;;;;17.56;100.00;102255.09;5333104;26;1416;-61
2024/04/13 11:37:22;;;;;;;;;;;;;;;17.59;100.00;102256.47;5330911;26;1497;-62
2024/04/13 11:39:47;;;;;;;;;;;;;;;17.63;100.00;102249.56;5367485;26;1556;-61
2024/04/13 11:42:13;;;;;;;;;;;;;;;17.63;100.00;102252.25;5367913;26;1418;-61
2024/04/13 11:44:38;;;;;;;;;;;;;;;17.64;100.00;102248.50;5333172;26;1807;-62
2024/04/13 11:47:03;;;;;;;;;;;;;;;17.67;100.00;102244.50;5357015;26;1857;-62
2024/04/13 11:49:29;;;;;;;;;;;;;;;17.67;100.00;102252.66;5359237;26;1384;-62
2024/04/13 11:51:54;;;;;;;;;;;;;;;17.68;100.00;102236.13;5370012;26;1260;-63
2024/04/13 11:54:20;;;;;;;;;;;;;;;17.70;100.00;102228.59;5367986;26;1493;-62
2024/04/13 11:56:45;;;;;;;;;;;;;;;17.74;100.00;102239.81;5354743;26;1300;-62
2024/04/13 11:59:13;;;;;;;;;;;;;;;17.74;100.00;102221.66;5340757;26;1509;-62
2024/04/13 12:01:38;;;;;;;;;;;;;;;17.75;100.00;102223.31;5363893;26;1499;-62
2024/04/13 12:04:04;;;;;;;;;;;;;;;17.79;100.00;102215.53;5350981;26;1399;-62
2024/04/13 12:06:29;;;;;;;;;;;;;;;17.83;100.00;102219.44;5369269;26;1874;-62
2024/04/13 12:08:54;;;;;;;;;;;;;;;17.82;100.00;102209.63;5344781;26;1207;-62
2024/04/13 12:11:20;;;;;;;;;;;;;;;17.85;100.00;102208.34;5367772;26;1219;-60
2024/04/13 12:13:45;;;;;;;;;;;;;;;17.87;100.00;102193.50;5361084;26;1404;-63
2024/04/13 12:16:10;;;;;;;;;;;;;;;17.88;100.00;102188.88;5343113;26;1303;-61
2024/04/13 12:18:36;;;;;;;;;;;;;;;17.91;100.00;102183.84;5354274;26;1496;-62
2024/04/13 12:21:01;;;;;;;;;;;;;;;17.91;100.00;102183.84;5358520;26;1306;-62
2024/04/13 12:23:27;;;;;;;;;;;;;;;17.99;100.00;102179.13;5359414;26;1375;-62
2024/04/13 12:25:53;;;;;;;;;;;;;;;17.96;100.00;102177.72;5334447;26;1869;-62
2024/04/13 12:28:18;;;;;;;;;;;;;;;18.00;100.00;102180.81;5349261;26;1291;-62
2024/04/13 12:30:44;;;;;;;;;;;;;;;18.02;100.00;102162.38;5313914;26;1359;-63
2024/04/13 12:33:10;;;;;;;;;;;;;;;18.02;100.00;102157.81;5373606;26;1103;-62
2024/04/13 12:35:35;;;;;;;;;;;;;;;18.07;100.00;102170.66;5370724;26;1184;-62
2024/04/13 12:38:00;;;;;;;;;;;;;;;18.07;100.00;102163.34;5342602;26;1195;-62
2024/04/13 12:40:26;;;;;;;;;;;;;;;18.12;100.00;102157.19;5373518;26;1407;-62
2024/04/13 12:42:51;;;;;;;;;;;;;;;18.14;100.00;102152.38;5333352;26;1410;-62
2024/04/13 12:45:16;;;;;;;;;;;;;;;18.17;100.00;102146.47;5370207;26;1837;-62
2024/04/13 12:47:42;;;;;;;;;;;;;;;18.16;100.00;102142.09;5370991;26;1335;-62